This is the latest recevied weather packets stored in our database for station/object IT9RID. If no packets are shown the sender has not sent any weather packets the latest 10 day(s).
| Time | Temp. | Humidity | Pressure | Rain* | Wind** | Luminosity | Snow |
|---|---|---|---|---|---|---|---|
| 1777665780 | 13.33° C | 68% | 1019.8 hPa | 0 mm | - | - | - |
| 1777665180 | 13.33° C | 67% | 1019.7 hPa | 0 mm | - | - | - |
| 1777664579 | 13.89° C | 64% | 1019.5 hPa | 0 mm | - | - | - |
| 1777663979 | 14.44° C | 62% | 1019.4 hPa | 0 mm | - | - | - |
| 1777663379 | 15° C | 59% | 1019.4 hPa | 0 mm | - | - | - |
| 1777662779 | 15.56° C | 56% | 1019.3 hPa | 0 mm | - | - | - |
| 1777662179 | 16.11° C | 55% | 1019.3 hPa | 0 mm | - | - | - |
| 1777661579 | 16.11° C | 54% | 1019.1 hPa | 0 mm | - | - | - |
| 1777660978 | 16.11° C | 53% | 1018.9 hPa | 0 mm | - | - | - |
| 1777660378 | 16.11° C | 53% | 1018.8 hPa | 0 mm | - | - | - |
| 1777659778 | 16.11° C | 52% | 1018.6 hPa | 0 mm | - | - | - |
| 1777659178 | 16.67° C | 51% | 1018.5 hPa | 0 mm | - | - | - |
| 1777658578 | 16.67° C | 51% | 1018.5 hPa | 0 mm | - | - | - |
| 1777657977 | 16.67° C | 51% | 1018.3 hPa | 0 mm | - | - | - |
| 1777657378 | 16.67° C | 51% | 1018.2 hPa | 0 mm | - | - | - |
| 1777656777 | 16.67° C | 51% | 1018.2 hPa | 0 mm | - | - | - |
| 1777655577 | 17.22° C | 50% | 1018 hPa | 0 mm | - | - | - |
| 1777654977 | 17.22° C | 49% | 1017.9 hPa | 0 mm | - | - | - |
| 1777654377 | 17.78° C | 49% | 1017.8 hPa | 0 mm | - | - | - |
| 1777653777 | 17.78° C | 49% | 1017.8 hPa | 0 mm | - | - | - |
| 1777653178 | 17.78° C | 51% | 1017.7 hPa | 0 mm | - | - | - |
| 1777652576 | 18.33° C | 52% | 1017.6 hPa | 0 mm | - | - | - |
| 1777651976 | 17.78° C | 53% | 1017.6 hPa | 0 mm | - | - | - |
| 1777651376 | 17.78° C | 53% | 1017.6 hPa | 0 mm | - | - | - |
| 1777650776 | 17.78° C | 53% | 1017.7 hPa | 0 mm | - | - | - |
* Rain latest hour (hover to see other rain measurements)
** Current wind speed in m/s (hover to see current wind gust speed)